sensor_id;sensor_type;location;lat;lon;timestamp;P1;durP1;ratioP1;P2;durP2;ratioP2
16967;SDS011;64862;54.398;10.126;2023-04-28T00:02:15;8.07;;;3.85;;
16967;SDS011;64862;54.398;10.126;2023-04-28T00:12:19;7.10;;;3.67;;
16967;SDS011;64862;54.398;10.126;2023-04-28T00:22:21;7.68;;;3.70;;
16967;SDS011;64862;54.398;10.126;2023-04-28T00:32:24;8.13;;;4.15;;
16967;SDS011;64862;54.398;10.126;2023-04-28T00:42:29;8.13;;;4.10;;
16967;SDS011;64862;54.398;10.126;2023-04-28T00:52:33;11.60;;;4.10;;
16967;SDS011;64862;54.398;10.126;2023-04-28T01:02:35;8.82;;;4.07;;
16967;SDS011;64862;54.398;10.126;2023-04-28T01:12:38;9.10;;;4.10;;
16967;SDS011;64862;54.398;10.126;2023-04-28T01:22:41;8.88;;;4.05;;
16967;SDS011;64862;54.398;10.126;2023-04-28T01:32:45;8.90;;;4.00;;
16967;SDS011;64862;54.398;10.126;2023-04-28T01:42:47;6.95;;;3.92;;
16967;SDS011;64862;54.398;10.126;2023-04-28T01:52:50;9.65;;;3.55;;
16967;SDS011;64862;54.398;10.126;2023-04-28T02:02:53;6.35;;;3.72;;
16967;SDS011;64862;54.398;10.126;2023-04-28T02:12:57;8.98;;;4.45;;
16967;SDS011;64862;54.398;10.126;2023-04-28T02:22:59;10.05;;;4.10;;
16967;SDS011;64862;54.398;10.126;2023-04-28T02:33:03;9.07;;;4.20;;
16967;SDS011;64862;54.398;10.126;2023-04-28T02:43:06;8.80;;;4.68;;
16967;SDS011;64862;54.398;10.126;2023-04-28T02:53:09;8.57;;;4.68;;
16967;SDS011;64862;54.398;10.126;2023-04-28T03:03:11;6.75;;;4.38;;
16967;SDS011;64862;54.398;10.126;2023-04-28T03:13:15;8.30;;;4.90;;
16967;SDS011;64862;54.398;10.126;2023-04-28T03:23:17;9.68;;;5.28;;
16967;SDS011;64862;54.398;10.126;2023-04-28T03:33:21;14.80;;;8.30;;
16967;SDS011;64862;54.398;10.126;2023-04-28T03:43:25;14.07;;;7.05;;
16967;SDS011;64862;54.398;10.126;2023-04-28T03:53:47;16.00;;;8.43;;
16967;SDS011;64862;54.398;10.126;2023-04-28T04:03:49;15.25;;;9.15;;
16967;SDS011;64862;54.398;10.126;2023-04-28T04:13:53;16.23;;;8.98;;
16967;SDS011;64862;54.398;10.126;2023-04-28T04:23:58;18.73;;;10.48;;
16967;SDS011;64862;54.398;10.126;2023-04-28T04:34:03;19.23;;;10.18;;
16967;SDS011;64862;54.398;10.126;2023-04-28T04:44:05;20.27;;;10.70;;
16967;SDS011;64862;54.398;10.126;2023-04-28T04:54:16;18.07;;;10.47;;
16967;SDS011;64862;54.398;10.126;2023-04-28T05:04:20;16.65;;;10.10;;
16967;SDS011;64862;54.398;10.126;2023-04-28T05:14:24;18.23;;;10.38;;
16967;SDS011;64862;54.398;10.126;2023-04-28T05:24:26;15.43;;;8.45;;
16967;SDS011;64862;54.398;10.126;2023-04-28T05:34:32;12.10;;;6.80;;
16967;SDS011;64862;54.398;10.126;2023-04-28T05:44:34;11.57;;;6.47;;
16967;SDS011;64862;54.398;10.126;2023-04-28T05:54:38;18.63;;;8.52;;
16967;SDS011;64862;54.398;10.126;2023-04-28T06:04:40;21.58;;;13.00;;
16967;SDS011;64862;54.398;10.126;2023-04-28T06:14:45;24.25;;;14.40;;
16967;SDS011;64862;54.398;10.126;2023-04-28T06:24:47;23.00;;;13.25;;
16967;SDS011;64862;54.398;10.126;2023-04-28T06:34:55;19.23;;;12.15;;
16967;SDS011;64862;54.398;10.126;2023-04-28T06:44:58;17.73;;;11.10;;
16967;SDS011;64862;54.398;10.126;2023-04-28T06:55:03;21.02;;;10.93;;
16967;SDS011;64862;54.398;10.126;2023-04-28T07:05:06;20.38;;;11.77;;
16967;SDS011;64862;54.398;10.126;2023-04-28T07:15:10;17.55;;;10.73;;
16967;SDS011;64862;54.398;10.126;2023-04-28T07:25:13;12.40;;;7.93;;
16967;SDS011;64862;54.398;10.126;2023-04-28T07:35:17;11.30;;;6.45;;
16967;SDS011;64862;54.398;10.126;2023-04-28T07:45:20;9.43;;;5.70;;
16967;SDS011;64862;54.398;10.126;2023-04-28T07:55:23;10.75;;;6.30;;
16967;SDS011;64862;54.398;10.126;2023-04-28T08:05:26;9.93;;;5.72;;
16967;SDS011;64862;54.398;10.126;2023-04-28T08:15:29;9.90;;;5.38;;
16967;SDS011;64862;54.398;10.126;2023-04-28T08:25:31;13.55;;;5.55;;
16967;SDS011;64862;54.398;10.126;2023-04-28T08:35:35;6.68;;;4.13;;
16967;SDS011;64862;54.398;10.126;2023-04-28T08:45:39;8.00;;;3.00;;
16967;SDS011;64862;54.398;10.126;2023-04-28T08:55:46;6.33;;;2.77;;
16967;SDS011;64862;54.398;10.126;2023-04-28T09:05:49;5.65;;;2.90;;
16967;SDS011;64862;54.398;10.126;2023-04-28T09:15:55;5.53;;;2.10;;
16967;SDS011;64862;54.398;10.126;2023-04-28T09:26:01;4.07;;;1.67;;
16967;SDS011;64862;54.398;10.126;2023-04-28T09:36:06;4.20;;;1.58;;
16967;SDS011;64862;54.398;10.126;2023-04-28T09:46:08;4.22;;;2.00;;
16967;SDS011;64862;54.398;10.126;2023-04-28T09:56:11;4.82;;;1.98;;
16967;SDS011;64862;54.398;10.126;2023-04-28T10:06:14;4.60;;;1.40;;
16967;SDS011;64862;54.398;10.126;2023-04-28T10:16:18;5.75;;;1.48;;
16967;SDS011;64862;54.398;10.126;2023-04-28T10:26:20;4.57;;;1.70;;
16967;SDS011;64862;54.398;10.126;2023-04-28T10:36:48;4.90;;;1.65;;
16967;SDS011;64862;54.398;10.126;2023-04-28T10:47:03;5.60;;;1.70;;
16967;SDS011;64862;54.398;10.126;2023-04-28T10:57:17;6.80;;;2.10;;
16967;SDS011;64862;54.398;10.126;2023-04-28T11:07:20;6.40;;;2.20;;
16967;SDS011;64862;54.398;10.126;2023-04-28T11:17:32;5.70;;;2.20;;
16967;SDS011;64862;54.398;10.126;2023-04-28T11:37:44;3.80;;;2.00;;
16967;SDS011;64862;54.398;10.126;2023-04-28T11:47:46;9.48;;;2.10;;
16967;SDS011;64862;54.398;10.126;2023-04-28T11:57:59;4.97;;;2.22;;
16967;SDS011;64862;54.398;10.126;2023-04-28T12:08:26;7.13;;;2.85;;
16967;SDS011;64862;54.398;10.126;2023-04-28T12:28:35;7.45;;;3.38;;
16967;SDS011;64862;54.398;10.126;2023-04-28T12:38:47;9.88;;;3.92;;
16967;SDS011;64862;54.398;10.126;2023-04-28T12:48:49;8.40;;;3.40;;
16967;SDS011;64862;54.398;10.126;2023-04-28T12:58:53;9.05;;;3.75;;
16967;SDS011;64862;54.398;10.126;2023-04-28T13:08:55;6.63;;;3.38;;
16967;SDS011;64862;54.398;10.126;2023-04-28T13:18:59;9.63;;;3.55;;
16967;SDS011;64862;54.398;10.126;2023-04-28T13:29:02;7.55;;;3.50;;
16967;SDS011;64862;54.398;10.126;2023-04-28T13:39:06;9.52;;;4.05;;
16967;SDS011;64862;54.398;10.126;2023-04-28T13:49:11;8.73;;;4.13;;
16967;SDS011;64862;54.398;10.126;2023-04-28T13:59:15;10.50;;;4.40;;
16967;SDS011;64862;54.398;10.126;2023-04-28T14:09:18;7.05;;;3.65;;
16967;SDS011;64862;54.398;10.126;2023-04-28T14:19:22;9.45;;;4.25;;
16967;SDS011;64862;54.398;10.126;2023-04-28T14:29:27;7.45;;;3.55;;
16967;SDS011;64862;54.398;10.126;2023-04-28T14:39:31;11.68;;;4.80;;
16967;SDS011;64862;54.398;10.126;2023-04-28T14:49:33;9.38;;;3.90;;
16967;SDS011;64862;54.398;10.126;2023-04-28T14:59:37;11.77;;;6.35;;
16967;SDS011;64862;54.398;10.126;2023-04-28T15:09:39;10.18;;;5.20;;
16967;SDS011;64862;54.398;10.126;2023-04-28T15:19:44;10.18;;;4.63;;
16967;SDS011;64862;54.398;10.126;2023-04-28T15:29:46;10.73;;;5.30;;
16967;SDS011;64862;54.398;10.126;2023-04-28T15:39:50;9.70;;;4.70;;
16967;SDS011;64862;54.398;10.126;2023-04-28T15:49:53;9.88;;;5.30;;
16967;SDS011;64862;54.398;10.126;2023-04-28T15:59:59;10.75;;;5.43;;
16967;SDS011;64862;54.398;10.126;2023-04-28T16:10:01;15.07;;;5.90;;
16967;SDS011;64862;54.398;10.126;2023-04-28T16:20:06;12.45;;;5.78;;
16967;SDS011;64862;54.398;10.126;2023-04-28T16:30:10;11.73;;;5.53;;
16967;SDS011;64862;54.398;10.126;2023-04-28T16:40:13;16.65;;;5.80;;
16967;SDS011;64862;54.398;10.126;2023-04-28T16:50:15;12.38;;;5.32;;
16967;SDS011;64862;54.398;10.126;2023-04-28T17:00:21;14.50;;;5.05;;
16967;SDS011;64862;54.398;10.126;2023-04-28T17:10:23;12.32;;;5.25;;
16967;SDS011;64862;54.398;10.126;2023-04-28T17:20:27;14.07;;;6.32;;
16967;SDS011;64862;54.398;10.126;2023-04-28T17:30:29;20.63;;;8.77;;
16967;SDS011;64862;54.398;10.126;2023-04-28T17:40:33;16.45;;;6.78;;
16967;SDS011;64862;54.398;10.126;2023-04-28T17:50:35;12.07;;;6.35;;
16967;SDS011;64862;54.398;10.126;2023-04-28T18:00:39;14.30;;;6.88;;
16967;SDS011;64862;54.398;10.126;2023-04-28T18:10:42;13.07;;;6.60;;
16967;SDS011;64862;54.398;10.126;2023-04-28T18:20:47;13.80;;;7.20;;
16967;SDS011;64862;54.398;10.126;2023-04-28T18:30:49;12.80;;;7.60;;
16967;SDS011;64862;54.398;10.126;2023-04-28T18:40:51;19.40;;;9.07;;
16967;SDS011;64862;54.398;10.126;2023-04-28T18:50:56;18.45;;;9.10;;
16967;SDS011;64862;54.398;10.126;2023-04-28T19:01:02;20.52;;;9.55;;
16967;SDS011;64862;54.398;10.126;2023-04-28T19:11:05;19.02;;;9.55;;
16967;SDS011;64862;54.398;10.126;2023-04-28T19:21:10;15.75;;;8.52;;
16967;SDS011;64862;54.398;10.126;2023-04-28T19:31:13;21.50;;;8.77;;
16967;SDS011;64862;54.398;10.126;2023-04-28T19:41:17;15.32;;;7.80;;
16967;SDS011;64862;54.398;10.126;2023-04-28T19:51:20;21.15;;;9.10;;
16967;SDS011;64862;54.398;10.126;2023-04-28T20:01:23;21.65;;;8.68;;
16967;SDS011;64862;54.398;10.126;2023-04-28T20:11:26;16.33;;;8.52;;
16967;SDS011;64862;54.398;10.126;2023-04-28T20:21:30;15.65;;;8.27;;
16967;SDS011;64862;54.398;10.126;2023-04-28T20:31:34;19.85;;;9.15;;
16967;SDS011;64862;54.398;10.126;2023-04-28T20:41:38;19.33;;;9.55;;
16967;SDS011;64862;54.398;10.126;2023-04-28T20:51:41;18.27;;;9.20;;
16967;SDS011;64862;54.398;10.126;2023-04-28T21:01:46;17.65;;;8.98;;
16967;SDS011;64862;54.398;10.126;2023-04-28T21:11:48;20.25;;;8.95;;
16967;SDS011;64862;54.398;10.126;2023-04-28T21:21:52;18.02;;;8.48;;
16967;SDS011;64862;54.398;10.126;2023-04-28T21:31:57;17.13;;;8.18;;
16967;SDS011;64862;54.398;10.126;2023-04-28T21:42:01;16.73;;;7.25;;
16967;SDS011;64862;54.398;10.126;2023-04-28T21:52:06;16.75;;;7.32;;
16967;SDS011;64862;54.398;10.126;2023-04-28T22:02:10;15.57;;;7.03;;
16967;SDS011;64862;54.398;10.126;2023-04-28T22:12:16;14.40;;;6.60;;
16967;SDS011;64862;54.398;10.126;2023-04-28T22:22:20;16.63;;;6.47;;
16967;SDS011;64862;54.398;10.126;2023-04-28T22:32:22;12.98;;;6.07;;
16967;SDS011;64862;54.398;10.126;2023-04-28T22:42:26;14.15;;;5.70;;
16967;SDS011;64862;54.398;10.126;2023-04-28T22:52:28;13.38;;;6.13;;
16967;SDS011;64862;54.398;10.126;2023-04-28T23:02:32;13.00;;;6.25;;
16967;SDS011;64862;54.398;10.126;2023-04-28T23:12:35;16.25;;;6.10;;
16967;SDS011;64862;54.398;10.126;2023-04-28T23:22:39;11.27;;;5.57;;
16967;SDS011;64862;54.398;10.126;2023-04-28T23:32:41;12.70;;;6.38;;
16967;SDS011;64862;54.398;10.126;2023-04-28T23:42:46;11.70;;;5.97;;
16967;SDS011;64862;54.398;10.126;2023-04-28T23:52:50;13.32;;;5.90;;
